Time,TemperatureF,DewpointF,PressureIn,WindDirection,WindDirectionDegrees,WindSpeedMPH,WindSpeedGustMPH,Humidity,HourlyPrecipIn,Conditions,Clouds,dailyrainin,SoftwareType,DateUTC
2013-05-05 00:03:00,48.2,41.0,30.29,ENE,64,2.0,4.0,76,0.00,,,0.00,weatherlink.com 1.10,2013-05-05 04:03:00,
2013-05-05 00:18:00,48.1,41.0,30.29,East,88,1.0,5.0,77,0.00,,,0.00,weatherlink.com 1.10,2013-05-05 04:18:00,
2013-05-05 00:33:00,47.9,41.0,30.29,ESE,120,3.0,4.0,77,0.00,,,0.00,weatherlink.com 1.10,2013-05-05 04:33:00,
2013-05-05 00:49:00,47.8,41.0,30.29,NE,52,3.0,6.0,77,0.00,,,0.00,weatherlink.com 1.10,2013-05-05 04:49:00,
2013-05-05 01:04:00,47.7,41.0,30.28,SE,141,0.0,3.0,77,0.00,,,0.00,weatherlink.com 1.10,2013-05-05 05:04:00,
2013-05-05 01:19:00,47.5,40.0,30.28,SE,134,2.0,4.0,76,0.00,,,0.00,weatherlink.com 1.10,2013-05-05 05:19:00,
2013-05-05 01:34:00,47.4,40.0,30.28,ENE,58,1.0,4.0,76,0.00,,,0.00,weatherlink.com 1.10,2013-05-05 05:34:00,
2013-05-05 01:49:00,47.2,40.0,30.27,ENE,69,1.0,4.0,76,0.00,,,0.00,weatherlink.com 1.10,2013-05-05 05:49:00,
2013-05-05 02:04:00,46.9,39.0,30.27,ENE,57,0.0,3.0,75,0.00,,,0.00,weatherlink.com 1.10,2013-05-05 06:04:00,
2013-05-05 02:19:00,46.7,39.0,30.27,East,87,1.0,4.0,75,0.00,,,0.00,weatherlink.com 1.10,2013-05-05 06:19:00,
2013-05-05 02:34:00,46.6,39.0,30.26,NE,43,2.0,3.0,76,0.00,,,0.00,weatherlink.com 1.10,2013-05-05 06:34:00,
2013-05-05 02:49:00,46.6,39.0,30.26,East,81,4.0,4.0,76,0.00,,,0.00,weatherlink.com 1.10,2013-05-05 06:49:00,
2013-05-05 03:04:00,46.5,39.0,30.26,East,82,2.0,5.0,75,0.00,,,0.00,weatherlink.com 1.10,2013-05-05 07:04:00,
2013-05-05 03:19:00,-999.0,-99.9,30.26,North,-999,-999.0,-999.0,-999,0.00,,,0.00,weatherlink.com 1.10,2013-05-05 07:19:00,
2013-05-05 03:34:00,-999.0,-99.9,30.26,North,-999,-999.0,-999.0,-999,0.00,,,0.00,weatherlink.com 1.10,2013-05-05 07:34:00,
2013-05-05 03:49:00,-999.0,-99.9,30.26,North,-999,-999.0,-999.0,-999,0.00,,,0.00,weatherlink.com 1.10,2013-05-05 07:49:00,
2013-05-05 04:04:00,-999.0,-99.9,30.26,North,-999,-999.0,-999.0,-999,0.00,,,0.00,weatherlink.com 1.10,2013-05-05 08:04:00,
2013-05-05 04:19:00,-999.0,-99.9,30.26,North,-999,-999.0,-999.0,-999,0.00,,,0.00,weatherlink.com 1.10,2013-05-05 08:19:00,
2013-05-05 04:34:00,-999.0,-99.9,30.26,North,-999,-999.0,-999.0,-999,0.00,,,0.00,weatherlink.com 1.10,2013-05-05 08:34:00,
2013-05-05 04:49:00,-999.0,-99.9,30.26,North,-999,-999.0,-999.0,-999,0.00,,,0.00,weatherlink.com 1.10,2013-05-05 08:49:00,
2013-05-05 05:04:00,-999.0,-99.9,30.26,North,-999,-999.0,-999.0,-999,0.00,,,0.00,weatherlink.com 1.10,2013-05-05 09:04:00,
2013-05-05 05:19:00,-999.0,-99.9,30.26,North,-999,-999.0,-999.0,-999,0.00,,,0.00,weatherlink.com 1.10,2013-05-05 09:19:00,
2013-05-05 05:35:00,-999.0,-99.9,30.26,North,-999,-999.0,-999.0,-999,0.00,,,0.00,weatherlink.com 1.10,2013-05-05 09:35:00,
2013-05-05 05:50:00,-999.0,-99.9,30.26,North,-999,-999.0,-999.0,-999,0.00,,,0.00,weatherlink.com 1.10,2013-05-05 09:50:00,
2013-05-05 06:05:00,-999.0,-99.9,30.26,North,-999,-999.0,-999.0,-999,0.00,,,0.00,weatherlink.com 1.10,2013-05-05 10:05:00,
2013-05-05 06:20:00,-999.0,-99.9,30.26,North,-999,-999.0,-999.0,-999,0.00,,,0.00,weatherlink.com 1.10,2013-05-05 10:20:00,
2013-05-05 06:35:00,46.5,39.0,30.27,NE,54,4.0,7.0,74,0.00,,,0.00,weatherlink.com 1.10,2013-05-05 10:35:00,
2013-05-05 06:50:00,47.3,39.0,30.27,East,94,4.0,7.0,73,0.00,,,0.00,weatherlink.com 1.10,2013-05-05 10:50:00,
2013-05-05 07:05:00,48.1,39.0,30.27,East,94,8.0,8.0,72,0.00,,,0.00,weatherlink.com 1.10,2013-05-05 11:05:00,
2013-05-05 07:20:00,48.7,40.0,30.27,East,89,3.0,9.0,72,0.00,,,0.00,weatherlink.com 1.10,2013-05-05 11:20:00,
2013-05-05 07:35:00,49.7,40.0,30.27,East,79,3.0,6.0,70,0.00,,,0.00,weatherlink.com 1.10,2013-05-05 11:35:00,
2013-05-05 07:50:00,49.4,40.0,30.27,ESE,111,2.0,10.0,70,0.00,,,0.00,weatherlink.com 1.10,2013-05-05 11:50:00,
2013-05-05 08:05:00,49.6,40.0,30.28,ENE,78,3.0,8.0,70,0.00,,,0.00,weatherlink.com 1.10,2013-05-05 12:05:00,
2013-05-05 08:20:00,49.9,40.0,30.28,SE,127,4.0,7.0,69,0.00,,,0.00,weatherlink.com 1.10,2013-05-05 12:20:00,
2013-05-05 08:35:00,50.3,40.0,30.28,NE,54,4.0,10.0,68,0.00,,,0.00,weatherlink.com 1.10,2013-05-05 12:35:00,
2013-05-05 08:50:00,50.8,39.0,30.28,ENE,61,5.0,8.0,64,0.00,,,0.00,weatherlink.com 1.10,2013-05-05 12:50:00,
2013-05-05 09:05:00,51.1,39.0,30.29,East,79,7.0,10.0,64,0.00,,,0.00,weatherlink.com 1.10,2013-05-05 13:05:00,
2013-05-05 09:20:00,52.2,38.0,30.28,East,84,3.0,8.0,60,0.00,,,0.00,weatherlink.com 1.10,2013-05-05 13:20:00,
2013-05-05 09:35:00,52.5,38.0,30.28,ENE,75,4.0,8.0,59,0.00,,,0.00,weatherlink.com 1.10,2013-05-05 13:35:00,
2013-05-05 09:50:00,52.8,39.0,30.29,ESE,109,4.0,7.0,59,0.00,,,0.00,weatherlink.com 1.10,2013-05-05 13:50:00,
2013-05-05 10:05:00,53.5,39.0,30.28,WSW,257,1.0,6.0,58,0.00,,,0.00,weatherlink.com 1.10,2013-05-05 14:05:00,
2013-05-05 10:20:00,53.8,39.0,30.28,East,93,3.0,8.0,57,0.00,,,0.00,weatherlink.com 1.10,2013-05-05 14:20:00,
2013-05-05 10:35:00,54.2,39.0,30.28,East,91,4.0,9.0,56,0.00,,,0.00,weatherlink.com 1.10,2013-05-05 14:35:00,
2013-05-05 10:50:00,54.5,38.0,30.28,ENE,63,5.0,10.0,55,0.00,,,0.00,weatherlink.com 1.10,2013-05-05 14:50:00,
2013-05-05 11:05:00,55.1,39.0,30.28,SE,124,3.0,9.0,54,0.00,,,0.00,weatherlink.com 1.10,2013-05-05 15:05:00,
2013-05-05 11:20:00,55.8,39.0,30.28,SE,137,3.0,10.0,53,0.00,,,0.00,weatherlink.com 1.10,2013-05-05 15:20:00,
2013-05-05 11:35:00,56.3,39.0,30.28,ENE,57,7.0,7.0,53,0.00,,,0.00,weatherlink.com 1.10,2013-05-05 15:35:00,
2013-05-05 11:51:00,57.0,39.0,30.27,NNE,23,6.0,7.0,52,0.00,,,0.00,weatherlink.com 1.10,2013-05-05 15:51:00,
2013-05-05 12:06:00,57.5,38.0,30.27,NE,36,4.0,8.0,49,0.00,,,0.00,weatherlink.com 1.10,2013-05-05 16:06:00,
2013-05-05 12:21:00,58.6,38.0,30.26,NE,50,4.0,7.0,47,0.00,,,0.00,weatherlink.com 1.10,2013-05-05 16:21:00,
2013-05-05 12:36:00,59.3,39.0,30.26,SE,124,1.0,8.0,47,0.00,,,0.00,weatherlink.com 1.10,2013-05-05 16:36:00,
2013-05-05 12:51:00,59.4,38.0,30.26,NE,46,2.0,9.0,46,0.00,,,0.00,weatherlink.com 1.10,2013-05-05 16:51:00,
2013-05-05 13:06:00,59.9,39.0,30.25,ENE,58,3.0,12.0,46,0.00,,,0.00,weatherlink.com 1.10,2013-05-05 17:06:00,
2013-05-05 13:21:00,60.6,42.0,30.26,East,95,4.0,10.0,50,0.00,,,0.00,weatherlink.com 1.10,2013-05-05 17:21:00,
2013-05-05 13:36:00,60.4,43.0,30.25,West,271,4.0,7.0,53,0.00,,,0.00,weatherlink.com 1.10,2013-05-05 17:36:00,
2013-05-05 13:51:00,60.6,43.0,30.25,ENE,63,2.0,11.0,53,0.00,,,0.00,weatherlink.com 1.10,2013-05-05 17:51:00,
2013-05-05 14:06:00,59.8,43.0,30.25,East,97,3.0,7.0,55,0.00,,,0.00,weatherlink.com 1.10,2013-05-05 18:06:00,
2013-05-05 14:21:00,59.3,43.0,30.25,SSW,211,3.0,11.0,55,0.00,,,0.00,weatherlink.com 1.10,2013-05-05 18:21:00,
2013-05-05 14:36:00,60.0,44.0,30.24,SW,221,2.0,7.0,55,0.00,,,0.00,weatherlink.com 1.10,2013-05-05 18:36:00,
2013-05-05 14:51:00,61.0,44.0,30.24,ENE,63,3.0,9.0,53,0.00,,,0.00,weatherlink.com 1.10,2013-05-05 18:51:00,
2013-05-05 15:06:00,60.0,44.0,30.24,NW,323,2.0,9.0,56,0.00,,,0.00,weatherlink.com 1.10,2013-05-05 19:06:00,
2013-05-05 15:21:00,59.4,44.0,30.24,SSW,205,6.0,11.0,58,0.00,,,0.00,weatherlink.com 1.10,2013-05-05 19:21:00,
2013-05-05 15:36:00,-999.0,-99.9,30.24,North,-999,-999.0,-999.0,-999,0.00,,,0.00,weatherlink.com 1.10,2013-05-05 19:36:00,
2013-05-05 15:51:00,-999.0,-99.9,30.24,North,-999,-999.0,-999.0,-999,0.00,,,0.00,weatherlink.com 1.10,2013-05-05 19:51:00,
2013-05-05 16:06:00,-999.0,-99.9,30.24,North,-999,-999.0,-999.0,-999,0.00,,,0.00,weatherlink.com 1.10,2013-05-05 20:06:00,
2013-05-05 16:21:00,-999.0,-99.9,30.24,North,-999,-999.0,-999.0,-999,0.00,,,0.00,weatherlink.com 1.10,2013-05-05 20:21:00,
2013-05-05 16:36:00,-999.0,-99.9,30.23,North,-999,-999.0,-999.0,-999,0.00,,,0.00,weatherlink.com 1.10,2013-05-05 20:36:00,
2013-05-05 16:51:00,-999.0,-99.9,30.23,North,-999,-999.0,-999.0,-999,0.00,,,0.00,weatherlink.com 1.10,2013-05-05 20:51:00,
2013-05-05 17:06:00,-999.0,-99.9,30.23,North,-999,-999.0,-999.0,-999,0.00,,,0.00,weatherlink.com 1.10,2013-05-05 21:06:00,
2013-05-05 17:21:00,-999.0,-99.9,30.23,North,-999,-999.0,-999.0,-999,0.00,,,0.00,weatherlink.com 1.10,2013-05-05 21:21:00,
2013-05-05 17:36:00,-999.0,-99.9,30.23,North,-999,-999.0,-999.0,-999,0.00,,,0.00,weatherlink.com 1.10,2013-05-05 21:36:00,
2013-05-05 17:52:00,-999.0,-99.9,30.22,North,-999,-999.0,-999.0,-999,0.00,,,0.00,weatherlink.com 1.10,2013-05-05 21:52:00,
2013-05-05 18:07:00,-999.0,-99.9,30.23,North,-999,-999.0,-999.0,-999,0.00,,,0.00,weatherlink.com 1.10,2013-05-05 22:07:00,
2013-05-05 18:22:00,-999.0,-99.9,30.23,North,-999,-999.0,-999.0,-999,0.00,,,0.00,weatherlink.com 1.10,2013-05-05 22:22:00,
2013-05-05 18:37:00,-999.0,-99.9,30.22,North,-999,-999.0,-999.0,-999,0.00,,,0.00,weatherlink.com 1.10,2013-05-05 22:37:00,
2013-05-05 18:52:00,-999.0,-99.9,30.23,North,-999,-999.0,-999.0,-999,0.00,,,0.00,weatherlink.com 1.10,2013-05-05 22:52:00,
2013-05-05 19:07:00,-999.0,-99.9,30.23,North,-999,-999.0,-999.0,-999,0.00,,,0.00,weatherlink.com 1.10,2013-05-05 23:07:00,
2013-05-05 19:22:00,-999.0,-99.9,30.23,North,-999,-999.0,-999.0,-999,0.00,,,0.00,weatherlink.com 1.10,2013-05-05 23:22:00,
2013-05-05 19:37:00,-999.0,-99.9,30.23,North,-999,-999.0,-999.0,-999,0.00,,,0.00,weatherlink.com 1.10,2013-05-05 23:37:00,
2013-05-05 19:52:00,-999.0,-99.9,30.23,North,-999,-999.0,-999.0,-999,0.00,,,0.00,weatherlink.com 1.10,2013-05-05 23:52:00,
2013-05-05 20:07:00,-999.0,-99.9,30.24,North,-999,-999.0,-999.0,-999,0.00,,,0.00,weatherlink.com 1.10,2013-05-06 00:07:00,
2013-05-05 20:22:00,-999.0,-99.9,30.24,North,-999,-999.0,-999.0,-999,0.00,,,0.00,weatherlink.com 1.10,2013-05-06 00:22:00,
2013-05-05 20:37:00,-999.0,-99.9,30.25,North,-999,-999.0,-999.0,-999,0.00,,,0.00,weatherlink.com 1.10,2013-05-06 00:37:00,
2013-05-05 20:52:00,-999.0,-99.9,30.25,North,-999,-999.0,-999.0,-999,0.00,,,0.00,weatherlink.com 1.10,2013-05-06 00:52:00,
2013-05-05 21:07:00,-999.0,-99.9,30.25,North,-999,-999.0,-999.0,-999,0.00,,,0.00,weatherlink.com 1.10,2013-05-06 01:07:00,
2013-05-05 21:22:00,-999.0,-99.9,30.25,North,-999,-999.0,-999.0,-999,0.00,,,0.00,weatherlink.com 1.10,2013-05-06 01:22:00,
2013-05-05 21:37:00,-999.0,-99.9,30.25,North,-999,-999.0,-999.0,-999,0.00,,,0.00,weatherlink.com 1.10,2013-05-06 01:37:00,
2013-05-05 21:52:00,-999.0,-99.9,30.25,North,-999,-999.0,-999.0,-999,0.00,,,0.00,weatherlink.com 1.10,2013-05-06 01:52:00,
2013-05-05 22:07:00,-999.0,-99.9,30.25,North,-999,-999.0,-999.0,-999,0.00,,,0.00,weatherlink.com 1.10,2013-05-06 02:07:00,
2013-05-05 22:22:00,-999.0,-99.9,30.25,North,-999,-999.0,-999.0,-999,0.00,,,0.00,weatherlink.com 1.10,2013-05-06 02:22:00,
2013-05-05 22:37:00,-999.0,-99.9,30.25,North,-999,-999.0,-999.0,-999,0.00,,,0.00,weatherlink.com 1.10,2013-05-06 02:37:00,
2013-05-05 22:52:00,-999.0,-99.9,30.25,North,-999,-999.0,-999.0,-999,0.00,,,0.00,weatherlink.com 1.10,2013-05-06 02:52:00,
2013-05-05 23:07:00,-999.0,-99.9,30.24,North,-999,-999.0,-999.0,-999,0.00,,,0.00,weatherlink.com 1.10,2013-05-06 03:07:00,
2013-05-05 23:22:00,-999.0,-99.9,30.24,North,-999,-999.0,-999.0,-999,0.00,,,0.00,weatherlink.com 1.10,2013-05-06 03:22:00,
2013-05-05 23:37:00,-999.0,-99.9,30.25,North,-999,-999.0,-999.0,-999,0.00,,,0.00,weatherlink.com 1.10,2013-05-06 03:37:00,
2013-05-05 23:52:00,-999.0,-99.9,30.24,North,-999,-999.0,-999.0,-999,0.00,,,0.00,weatherlink.com 1.10,2013-05-06 03:52:00,